createdAt,value
2022-10-04T00:02:19.423Z,5.78
2022-10-04T00:04:54.163Z,5.90
2022-10-04T00:07:25.997Z,6.30
2022-10-04T00:09:57.538Z,6.60
2022-10-04T00:12:27.672Z,5.75
2022-10-04T00:14:58.288Z,6.30
2022-10-04T00:17:29.881Z,6.10
2022-10-04T00:20:02.013Z,6.00
2022-10-04T00:22:31.816Z,5.93
2022-10-04T00:25:32.781Z,5.80
2022-10-04T00:28:45.320Z,6.50
2022-10-04T00:31:20.086Z,6.05
2022-10-04T00:33:50.436Z,6.75
2022-10-04T00:36:43.824Z,6.97
2022-10-04T00:39:27.874Z,7.35
2022-10-04T00:42:01.213Z,8.38
2022-10-04T00:44:32.117Z,7.72
2022-10-04T00:47:01.989Z,8.10
2022-10-04T00:49:32.752Z,8.40
2022-10-04T00:52:05.806Z,8.73
2022-10-04T00:54:36.607Z,7.68
2022-10-04T00:57:07.462Z,7.72
2022-10-04T00:59:38.119Z,7.28
2022-10-04T01:02:08.868Z,7.03
2022-10-04T01:04:46.489Z,7.47
2022-10-04T01:07:22.644Z,7.63
2022-10-04T01:09:54.110Z,8.38
2022-10-04T01:12:30.125Z,8.52
2022-10-04T01:15:03.128Z,8.07
2022-10-04T01:17:32.569Z,8.32
2022-10-04T01:20:03.790Z,8.40
2022-10-04T01:22:39.083Z,7.75
2022-10-04T01:25:09.423Z,8.52
2022-10-04T01:27:44.193Z,7.63
2022-10-04T01:30:14.611Z,7.38
2022-10-04T01:32:45.353Z,7.65
2022-10-04T01:35:15.937Z,8.02
2022-10-04T01:37:47.961Z,7.60
2022-10-04T01:40:17.869Z,8.05
2022-10-04T01:42:48.496Z,7.50
2022-10-04T01:45:19.873Z,7.70
2022-10-04T01:47:51.740Z,7.78
2022-10-04T01:50:23.135Z,7.47
2022-10-04T01:52:56.776Z,8.07
2022-10-04T01:55:27.799Z,7.43
2022-10-04T01:57:59.995Z,7.38
2022-10-04T02:00:29.682Z,7.35
2022-10-04T02:03:00.538Z,6.65
2022-10-04T02:05:31.497Z,6.55
2022-10-04T02:08:04.997Z,6.30
2022-10-04T02:10:39.778Z,6.78
2022-10-04T02:13:12.742Z,7.00
2022-10-04T02:15:42.247Z,7.47
2022-10-04T02:18:12.729Z,7.30
2022-10-04T02:20:42.292Z,7.47
2022-10-04T02:23:14.529Z,7.28
2022-10-04T02:25:44.079Z,7.35
2022-10-04T02:28:14.241Z,7.25
2022-10-04T02:30:44.814Z,7.00
2022-10-04T02:33:11.686Z,6.88
2022-10-04T02:35:46.223Z,6.95
2022-10-04T02:38:22.217Z,6.93
2022-10-04T02:40:53.469Z,6.93
2022-10-04T02:43:24.275Z,7.35
2022-10-04T02:45:55.489Z,7.55
2022-10-04T02:48:38.006Z,7.38
2022-10-04T02:51:18.795Z,7.88
2022-10-04T02:54:02.270Z,7.50
2022-10-04T02:56:32.908Z,7.80
2022-10-04T02:59:03.868Z,7.30
2022-10-04T03:01:44.094Z,7.35
2022-10-04T03:04:15.126Z,7.63
2022-10-04T03:06:45.733Z,7.75
2022-10-04T03:09:17.781Z,7.45
2022-10-04T03:11:47.237Z,7.57
2022-10-04T03:14:17.797Z,7.10
2022-10-04T03:16:47.798Z,7.20
2022-10-04T03:19:17.820Z,7.60
2022-10-04T03:21:48.858Z,8.20
2022-10-04T03:24:22.719Z,7.97
2022-10-04T03:26:53.225Z,7.88
2022-10-04T03:29:22.970Z,8.75
2022-10-04T03:31:53.252Z,8.25
2022-10-04T03:34:23.544Z,8.35
2022-10-04T03:36:54.005Z,11.00
2022-10-04T03:39:30.407Z,7.63
2022-10-04T03:42:00.334Z,7.68
2022-10-04T03:44:29.748Z,7.85
2022-10-04T03:46:59.180Z,8.18
2022-10-04T03:49:32.764Z,8.68
2022-10-04T03:52:02.221Z,8.02
2022-10-04T03:54:34.289Z,7.80
2022-10-04T03:57:03.760Z,7.47
2022-10-04T03:59:33.197Z,7.30
2022-10-04T04:02:09.630Z,8.00
2022-10-04T04:04:44.104Z,7.15
2022-10-04T04:07:15.127Z,7.50
2022-10-04T04:09:48.715Z,6.75
2022-10-04T04:12:20.154Z,7.32
2022-10-04T04:14:50.892Z,7.32
2022-10-04T04:17:35.958Z,7.32
2022-10-04T04:20:07.885Z,7.65
2022-10-04T04:22:37.870Z,7.40
2022-10-04T04:25:11.644Z,7.30
2022-10-04T04:27:41.542Z,7.60
2022-10-04T04:30:11.721Z,8.35
2022-10-04T04:32:43.159Z,7.53
2022-10-04T04:35:24.284Z,7.63
2022-10-04T04:38:16.137Z,7.35
2022-10-04T04:40:48.183Z,7.30
2022-10-04T04:43:20.573Z,7.40
2022-10-04T04:46:08.531Z,7.68
2022-10-04T04:48:40.230Z,7.60
2022-10-04T04:51:10.103Z,7.80
2022-10-04T04:53:40.141Z,7.55
2022-10-04T04:56:18.204Z,7.18
2022-10-04T04:58:48.999Z,7.35
2022-10-04T05:01:21.044Z,6.80
2022-10-04T05:04:02.917Z,6.95
2022-10-04T05:06:33.081Z,7.28
2022-10-04T05:09:02.521Z,7.20
2022-10-04T05:11:35.881Z,7.45
2022-10-04T05:14:06.867Z,6.97
2022-10-04T05:16:40.128Z,7.20
2022-10-04T05:19:11.628Z,7.20
2022-10-04T05:21:42.925Z,7.25
2022-10-04T05:24:13.705Z,7.32
2022-10-04T05:26:45.766Z,7.38
2022-10-04T05:29:19.222Z,6.78
2022-10-04T05:31:50.648Z,7.22
2022-10-04T05:34:25.777Z,6.40
2022-10-04T05:37:05.877Z,6.65
2022-10-04T05:39:37.884Z,6.32
2022-10-04T05:42:14.964Z,6.35
2022-10-04T05:44:49.099Z,7.20
2022-10-04T05:47:22.878Z,6.20
2022-10-04T05:49:53.196Z,6.90
2022-10-04T05:52:30.566Z,7.40
2022-10-04T05:55:19.201Z,7.00
2022-10-04T05:57:57.202Z,6.68
2022-10-04T06:00:27.804Z,6.72
2022-10-04T06:03:11.611Z,6.65
2022-10-04T06:05:51.772Z,6.63
2022-10-04T06:08:32.715Z,6.82
2022-10-04T06:11:09.399Z,7.10
2022-10-04T06:14:00.863Z,6.50
2022-10-04T06:16:36.202Z,6.88
2022-10-04T06:19:31.496Z,6.70
2022-10-04T06:22:11.898Z,6.38
2022-10-04T06:24:42.322Z,6.80
2022-10-04T06:27:13.768Z,6.43
2022-10-04T06:29:46.435Z,6.53
2022-10-04T06:32:28.206Z,7.03
2022-10-04T06:35:12.454Z,7.10
2022-10-04T06:38:02.982Z,7.43
2022-10-04T06:40:59.660Z,6.57
2022-10-04T06:43:37.569Z,6.70
2022-10-04T06:46:14.007Z,6.38
2022-10-04T06:49:02.414Z,8.27
2022-10-04T06:51:44.866Z,6.28
2022-10-04T06:54:21.743Z,5.85
2022-10-04T06:57:17.301Z,6.07
2022-10-04T06:59:58.949Z,5.55
2022-10-04T07:02:33.110Z,6.18
2022-10-04T07:05:09.399Z,6.05
2022-10-04T07:07:40.441Z,6.32
2022-10-04T07:10:29.678Z,9.38
2022-10-04T07:13:07.473Z,6.40
2022-10-04T07:15:46.880Z,5.80
2022-10-04T07:18:26.958Z,6.38
2022-10-04T07:21:02.820Z,6.32
2022-10-04T07:23:34.237Z,6.38
2022-10-04T07:26:04.923Z,7.00
2022-10-04T07:28:48.562Z,6.63
2022-10-04T07:31:26.416Z,6.40
2022-10-04T07:34:01.015Z,6.28
2022-10-04T07:36:32.427Z,6.43
2022-10-04T07:39:03.642Z,6.47
2022-10-04T07:44:05.401Z,6.90
2022-10-04T07:46:46.573Z,7.30
2022-10-04T07:49:19.902Z,7.00
2022-10-04T07:52:01.277Z,6.80
2022-10-04T07:54:35.637Z,6.88
2022-10-04T07:57:08.178Z,7.28
2022-10-04T07:59:42.144Z,6.72
2022-10-04T08:02:21.175Z,6.30
2022-10-04T08:04:57.348Z,6.18
2022-10-04T08:07:28.810Z,6.78
2022-10-04T08:10:02.883Z,7.50
2022-10-04T08:12:37.411Z,8.48
2022-10-04T08:15:20.153Z,8.40
2022-10-04T08:17:56.192Z,8.43
2022-10-04T08:20:36.335Z,8.10
2022-10-04T08:23:26.600Z,8.18
2022-10-04T08:25:59.756Z,8.18
2022-10-04T08:28:45.453Z,8.65
2022-10-04T08:31:21.525Z,8.90
2022-10-04T08:34:09.614Z,8.25
2022-10-04T08:36:54.314Z,8.52
2022-10-04T08:39:31.128Z,8.10
2022-10-04T08:42:20.551Z,7.93
2022-10-04T08:45:13.382Z,8.18
2022-10-04T08:48:24.804Z,8.75
2022-10-04T08:51:21.955Z,8.55
2022-10-04T08:54:26.089Z,9.02
2022-10-04T08:57:27.072Z,9.30
2022-10-04T09:00:16.653Z,9.30
2022-10-04T09:03:16.605Z,9.25
2022-10-04T09:06:01.903Z,9.55
2022-10-04T09:08:56.325Z,9.73
2022-10-04T09:11:47.147Z,9.45
2022-10-04T09:14:33.507Z,9.55
2022-10-04T09:17:09.009Z,9.93
2022-10-04T09:19:44.365Z,10.20
2022-10-04T09:22:21.078Z,10.20
2022-10-04T09:25:11.768Z,10.80
2022-10-04T09:27:55.348Z,10.85
2022-10-04T09:30:32.103Z,10.25
2022-10-04T09:33:13.825Z,10.38
2022-10-04T09:36:03.053Z,10.25
2022-10-04T09:39:29.892Z,10.43
2022-10-04T09:42:10.734Z,10.63
2022-10-04T09:45:09.268Z,10.85
2022-10-04T09:47:48.489Z,10.98
2022-10-04T09:50:54.863Z,11.15
2022-10-04T09:53:35.744Z,11.57
2022-10-04T09:56:18.588Z,9.70
2022-10-04T09:59:27.093Z,9.57
2022-10-04T10:02:29.180Z,9.75
2022-10-04T10:05:10.321Z,10.50
2022-10-04T10:07:41.775Z,10.77
2022-10-04T10:10:31.125Z,9.80
2022-10-04T10:13:45.637Z,9.35
2022-10-04T10:16:35.909Z,9.20
2022-10-04T10:19:46.924Z,9.35
2022-10-04T10:22:31.272Z,8.98
2022-10-04T10:25:13.573Z,9.18
2022-10-04T10:27:56.785Z,8.77
2022-10-04T10:30:28.160Z,8.43
2022-10-04T10:33:23.213Z,8.50
2022-10-04T10:36:36.349Z,8.40
2022-10-04T10:39:21.511Z,8.40
2022-10-04T10:42:14.805Z,8.73
2022-10-04T10:44:56.410Z,8.68
2022-10-04T10:47:33.752Z,8.88
2022-10-04T10:50:09.648Z,8.23
2022-10-04T10:53:04.305Z,8.07
2022-10-04T10:56:16.062Z,7.22
2022-10-04T10:59:13.991Z,7.72
2022-10-04T11:02:04.981Z,7.15
2022-10-04T11:04:51.503Z,6.85
2022-10-04T11:07:37.278Z,6.57
2022-10-04T11:10:27.377Z,5.45
2022-10-04T11:13:05.573Z,6.20
2022-10-04T11:16:07.805Z,6.72
2022-10-04T11:19:00.668Z,6.60
2022-10-04T11:21:44.527Z,6.90
2022-10-04T11:25:00.418Z,6.68
2022-10-04T11:27:33.770Z,7.28
2022-10-04T11:30:11.568Z,6.70
2022-10-04T11:33:09.624Z,6.95
2022-10-04T11:35:50.906Z,6.78
2022-10-04T11:38:29.540Z,6.88
2022-10-04T11:41:07.830Z,6.72
2022-10-04T11:43:46.558Z,6.72
2022-10-04T11:46:21.330Z,6.05
2022-10-04T11:49:00.500Z,6.68
2022-10-04T11:51:52.474Z,6.72
2022-10-04T11:54:57.068Z,6.25
2022-10-04T11:57:33.892Z,7.20
2022-10-04T12:00:07.589Z,6.78
2022-10-04T12:03:05.679Z,6.90
2022-10-04T12:06:03.995Z,7.13
2022-10-04T12:08:36.100Z,6.95
2022-10-04T12:11:53.082Z,6.90
2022-10-04T12:14:28.024Z,6.45
2022-10-04T12:17:08.998Z,6.50
2022-10-04T12:20:12.361Z,6.90
2022-10-04T12:23:02.563Z,7.05
2022-10-04T12:25:53.749Z,6.78
2022-10-04T12:31:16.513Z,7.10
2022-10-04T12:33:48.321Z,7.00
2022-10-04T12:36:38.649Z,7.05
2022-10-04T12:39:28.571Z,6.87
2022-10-04T12:42:04.885Z,7.20
2022-10-04T12:44:42.268Z,6.90
2022-10-04T12:47:38.295Z,7.15
2022-10-04T12:50:10.556Z,6.93
2022-10-04T12:52:44.277Z,6.63
2022-10-04T12:55:23.437Z,6.85
2022-10-04T12:57:53.564Z,6.72
2022-10-04T13:00:23.549Z,6.43
2022-10-04T13:03:11.618Z,6.32
2022-10-04T13:05:45.394Z,6.00
2022-10-04T13:08:22.876Z,6.40
2022-10-04T13:11:08.596Z,6.10
2022-10-04T13:13:49.866Z,6.70
2022-10-04T13:19:16.346Z,6.53
2022-10-04T13:22:15.659Z,6.53
2022-10-04T13:24:58.210Z,6.28
2022-10-04T13:27:41.338Z,6.32
2022-10-04T13:30:20.433Z,6.18
2022-10-04T13:32:53.986Z,6.00
2022-10-04T13:35:26.351Z,5.90
2022-10-04T13:38:15.295Z,5.43
2022-10-04T13:40:54.924Z,6.15
2022-10-04T13:43:56.889Z,6.43
2022-10-04T13:46:31.876Z,5.70
2022-10-04T13:49:08.513Z,5.43
2022-10-04T13:51:45.755Z,5.65
2022-10-04T13:54:33.960Z,5.40
2022-10-04T13:57:09.512Z,5.70
2022-10-04T13:59:45.256Z,5.70
2022-10-04T14:02:44.792Z,5.60
2022-10-04T14:05:40.506Z,5.72
2022-10-04T14:08:44.325Z,5.28
2022-10-04T14:11:58.520Z,5.25
2022-10-04T14:14:58.889Z,5.72
2022-10-04T14:17:54.640Z,4.80
2022-10-04T14:20:55.426Z,4.82
2022-10-04T14:23:37.314Z,4.57
2022-10-04T14:26:51.917Z,4.60
2022-10-04T14:29:40.263Z,4.45
2022-10-04T14:32:45.908Z,4.25
2022-10-04T14:35:16.076Z,4.35
2022-10-04T14:38:00.169Z,4.63
2022-10-04T14:40:55.319Z,4.18
2022-10-04T14:43:54.757Z,4.45
2022-10-04T14:46:26.065Z,4.40
2022-10-04T14:49:05.385Z,4.85
2022-10-04T14:51:43.978Z,4.95
2022-10-04T14:54:15.457Z,4.22
2022-10-04T14:57:00.735Z,4.95
2022-10-04T14:59:48.203Z,4.47
2022-10-04T15:02:41.791Z,4.97
2022-10-04T15:05:31.220Z,5.05
2022-10-04T15:08:15.729Z,4.95
2022-10-04T15:10:50.917Z,5.00
2022-10-04T15:13:22.698Z,5.65
2022-10-04T15:16:00.528Z,4.90
2022-10-04T15:18:39.137Z,5.30
2022-10-04T15:21:13.549Z,5.30
2022-10-04T15:23:43.794Z,5.68
2022-10-04T15:26:43.581Z,6.13
2022-10-04T15:29:17.527Z,6.30
2022-10-04T15:32:04.277Z,6.38
2022-10-04T15:34:35.828Z,6.13
2022-10-04T15:37:25.636Z,6.68
2022-10-04T15:40:18.571Z,6.40
2022-10-04T15:43:18.292Z,6.40
2022-10-04T15:46:00.724Z,6.53
2022-10-04T15:48:41.413Z,7.68
2022-10-04T15:51:14.824Z,7.22
2022-10-04T15:53:54.943Z,6.70
2022-10-04T15:56:28.073Z,6.97
2022-10-04T15:59:39.130Z,7.63
2022-10-04T16:02:46.820Z,7.00
2022-10-04T16:05:20.288Z,7.10
2022-10-04T16:08:17.332Z,7.00
2022-10-04T16:10:58.682Z,6.80
2022-10-04T16:13:51.472Z,7.20
2022-10-04T16:16:50.205Z,6.47
2022-10-04T16:19:28.791Z,6.70
2022-10-04T16:22:15.825Z,6.72
2022-10-04T16:24:51.379Z,6.60
2022-10-04T16:27:47.613Z,6.60
2022-10-04T16:30:27.069Z,6.45
2022-10-04T16:33:07.907Z,6.43
2022-10-04T16:35:38.286Z,6.60
2022-10-04T16:38:18.928Z,7.10
2022-10-04T16:40:59.481Z,6.63
2022-10-04T16:43:32.325Z,7.10
2022-10-04T16:46:15.790Z,7.00
2022-10-04T16:48:53.684Z,6.82
2022-10-04T16:51:56.710Z,6.70
2022-10-04T16:55:01.105Z,7.28
2022-10-04T16:57:30.651Z,6.80
2022-10-04T17:00:06.853Z,7.60
2022-10-04T17:03:01.270Z,7.97
2022-10-04T17:05:48.211Z,7.63
2022-10-04T17:08:26.025Z,7.32
2022-10-04T17:11:40.457Z,8.05
2022-10-04T17:14:52.384Z,7.93
2022-10-04T17:17:34.813Z,7.05
2022-10-04T17:20:08.245Z,7.15
2022-10-04T17:22:43.653Z,7.97
2022-10-04T17:25:21.424Z,8.15
2022-10-04T17:27:53.038Z,7.82
2022-10-04T17:30:24.162Z,7.80
2022-10-04T17:36:31.222Z,7.70
2022-10-04T17:39:05.764Z,7.40
2022-10-04T17:41:43.473Z,7.25
2022-10-04T17:44:37.509Z,7.45
2022-10-04T17:47:14.119Z,7.40
2022-10-04T17:50:11.088Z,7.63
2022-10-04T17:52:59.973Z,7.25
2022-10-04T17:55:31.417Z,7.20
2022-10-04T17:58:12.497Z,7.78
2022-10-04T18:00:57.241Z,7.35
2022-10-04T18:03:37.689Z,7.82
2022-10-04T18:06:31.121Z,9.25
2022-10-04T18:09:07.442Z,10.07
2022-10-04T18:11:47.917Z,10.07
2022-10-04T18:14:42.072Z,9.20
2022-10-04T18:17:28.966Z,9.82
2022-10-04T18:20:04.709Z,11.13
2022-10-04T18:22:34.961Z,10.15
2022-10-04T18:25:20.547Z,9.35
2022-10-04T18:28:02.293Z,9.18
2022-10-04T18:30:31.901Z,8.63
2022-10-04T18:33:07.632Z,8.65
2022-10-04T18:35:37.586Z,8.05
2022-10-04T18:38:27.323Z,8.00
2022-10-04T18:41:00.997Z,8.50
2022-10-04T18:43:44.861Z,8.27
2022-10-04T18:46:21.839Z,8.32
2022-10-04T18:49:02.034Z,9.43
2022-10-04T18:51:32.923Z,9.48
2022-10-04T18:54:11.333Z,9.95
2022-10-04T18:56:55.163Z,10.57
2022-10-04T18:59:51.529Z,10.10
2022-10-04T19:02:31.370Z,10.82
2022-10-04T19:05:05.045Z,10.70
2022-10-04T19:07:41.510Z,10.52
2022-10-04T19:10:23.660Z,8.90
2022-10-04T19:13:04.135Z,9.00
2022-10-04T19:16:01.573Z,8.80
2022-10-04T19:19:02.055Z,8.63
2022-10-04T19:21:36.825Z,8.17
2022-10-04T19:24:39.146Z,8.13
2022-10-04T19:27:11.712Z,8.73
2022-10-04T19:29:52.183Z,8.27
2022-10-04T19:32:26.752Z,7.82
2022-10-04T19:34:59.193Z,7.75
2022-10-04T19:37:29.377Z,7.47
2022-10-04T19:40:02.942Z,8.17
2022-10-04T19:42:36.645Z,10.30
2022-10-04T19:45:18.416Z,8.80
2022-10-04T19:47:50.327Z,8.73
2022-10-04T19:50:22.990Z,8.48
2022-10-04T19:52:58.687Z,8.32
2022-10-04T19:55:34.897Z,7.93
2022-10-04T19:58:09.481Z,8.48
2022-10-04T20:00:41.563Z,10.32
2022-10-04T20:03:13.166Z,12.82
2022-10-04T20:05:46.361Z,12.07
2022-10-04T20:08:16.131Z,12.00
2022-10-04T20:10:45.862Z,11.27
2022-10-04T20:13:21.342Z,8.02
2022-10-04T20:15:54.862Z,7.63
2022-10-04T20:19:09.696Z,7.80
2022-10-04T20:21:39.152Z,8.50
2022-10-04T20:24:17.892Z,7.95
2022-10-04T20:27:00.344Z,7.70
2022-10-04T20:30:04.412Z,7.68
2022-10-04T20:33:04.013Z,7.50
2022-10-04T20:36:09.205Z,6.80
2022-10-04T20:38:52.901Z,6.90
2022-10-04T20:42:13.260Z,7.13
2022-10-04T20:44:47.164Z,6.72
2022-10-04T20:47:24.011Z,6.97
2022-10-04T20:49:56.915Z,6.63
2022-10-04T20:52:26.481Z,6.53
2022-10-04T20:54:57.231Z,7.13
2022-10-04T20:57:26.704Z,6.80
2022-10-04T20:59:57.798Z,6.82
2022-10-04T21:05:14.930Z,6.97
2022-10-04T21:07:44.413Z,6.60
2022-10-04T21:10:19.159Z,6.38
2022-10-04T21:12:49.585Z,6.70
2022-10-04T21:15:23.286Z,6.55
2022-10-04T21:18:03.136Z,6.55
2022-10-04T21:20:48.140Z,6.30
2022-10-04T21:23:24.140Z,6.30
2022-10-04T21:25:53.602Z,5.95
2022-10-04T21:28:38.708Z,6.35
2022-10-04T21:31:08.579Z,6.43
2022-10-04T21:33:38.339Z,6.13
2022-10-04T21:36:10.814Z,6.25
2022-10-04T21:38:40.251Z,6.57
2022-10-04T21:41:09.737Z,6.15
2022-10-04T21:43:39.206Z,6.30
2022-10-04T21:46:08.973Z,6.28
2022-10-04T21:48:38.640Z,6.28
2022-10-04T21:51:10.912Z,6.25
2022-10-04T21:53:40.369Z,7.00
2022-10-04T21:56:10.267Z,6.53
2022-10-04T21:58:39.718Z,7.05
2022-10-04T22:01:09.471Z,7.68
2022-10-04T22:03:38.989Z,7.00
2022-10-04T22:06:11.077Z,7.38
2022-10-04T22:08:40.537Z,7.00
2022-10-04T22:11:10.015Z,6.97
2022-10-04T22:13:39.467Z,7.40
2022-10-04T22:16:09.585Z,7.45
2022-10-04T22:18:39.134Z,7.23
2022-10-04T22:21:11.175Z,7.30
2022-10-04T22:23:42.083Z,6.90
2022-10-04T22:26:13.098Z,6.97
2022-10-04T22:28:45.072Z,7.53
2022-10-04T22:31:14.941Z,7.10
2022-10-04T22:33:45.084Z,7.43
2022-10-04T22:36:20.109Z,7.32
2022-10-04T22:38:51.844Z,7.88
2022-10-04T22:41:21.601Z,8.00
2022-10-04T22:43:52.088Z,7.88
2022-10-04T22:46:22.422Z,7.90
2022-10-04T22:48:51.954Z,8.35
2022-10-04T22:51:46.722Z,8.30
2022-10-04T22:54:18.146Z,7.75
2022-10-04T22:56:47.826Z,7.78
2022-10-04T22:59:19.513Z,7.88
2022-10-04T23:01:49.023Z,8.38
2022-10-04T23:04:21.717Z,8.05
2022-10-04T23:06:53.912Z,8.48
2022-10-04T23:09:23.522Z,8.65
2022-10-04T23:11:52.961Z,8.13
2022-10-04T23:14:22.423Z,7.93
2022-10-04T23:16:51.886Z,8.02
2022-10-04T23:19:21.589Z,8.02
2022-10-04T23:21:53.607Z,7.57
2022-10-04T23:24:23.717Z,7.75
2022-10-04T23:26:55.877Z,7.82
2022-10-04T23:29:27.169Z,8.65
2022-10-04T23:31:56.763Z,8.32
2022-10-04T23:34:29.534Z,8.05
2022-10-04T23:37:01.645Z,8.00
2022-10-04T23:39:32.688Z,8.40
2022-10-04T23:42:02.247Z,8.05
2022-10-04T23:44:35.526Z,8.05
2022-10-04T23:47:05.099Z,8.77
2022-10-04T23:49:34.568Z,8.55
2022-10-04T23:52:06.633Z,8.07
2022-10-04T23:54:36.131Z,8.18
2022-10-04T23:57:05.690Z,7.72
2022-10-04T23:59:35.161Z,8.20
